Terminal Aerodrome Forecast
Issued by NWS

Home | Current Version | Previous Version | Text Only | Print | Product List | Glossary On
Versions: 1 2 3 4 5 6 7 8 9 10 11 12 13 14 15 16 17 18 19 20 21
527
FTUS42 KFFC 241341 AAA
TAFPDK
TAF AMD
KPDK 241341Z 2414/2512 19007KT P6SM BKN100
     FM241900 21010G15KT P6SM BKN050
     FM250200 19008KT P6SM SCT050 BKN250
     FM250600 20008KT P6SM OVC100
     FM251100 21008KT P6SM -SHRA BKN025=

USA.gov is the U.S. government's official web portal to all federal, state and local government web resources and services.